Time;durP1;ratioP1;P1;durP2;ratioP2;P2;SDS_P1;SDS_P2;PMS_P1;PMS_P2;Temp;Humidity;BMP_temperature;BMP_pressure;BME280_temperature;BME280_humidity;BME280_pressure;Samples;Min_cycle;Max_cycle;Signal;HPM_P1;HPM_P2
2022/07/24 00:01:36;;;;;;;;;;;20.10;99.90;;;;;;5107912;28;19943;-69
2022/07/24 00:04:03;;;;;;;;;;;20.10;99.90;;;;;;5106179;28;19963;-68
2022/07/24 00:06:29;;;;;;;;;;;20.00;99.90;;;;;;5106222;28;19940;-68
2022/07/24 00:08:57;;;;;;;;;;;20.00;99.90;;;;;;5106444;28;19944;-69
2022/07/24 00:11:24;;;;;;;;;;;20.00;99.90;;;;;;5106329;28;19920;-69
2022/07/24 00:13:51;;;;;;;;;;;20.00;99.90;;;;;;5111877;28;19959;-69
2022/07/24 00:16:17;;;;;;;;;;;19.90;99.90;;;;;;5126747;28;19951;-68
2022/07/24 00:18:44;;;;;;;;;;;19.90;99.90;;;;;;5127128;28;19982;-69
2022/07/24 00:21:11;;;;;;;;;;;19.90;99.90;;;;;;5126790;28;20115;-68
2022/07/24 00:23:38;;;;;;;;;;;19.80;99.90;;;;;;5126033;28;20229;-68
2022/07/24 00:26:06;;;;;;;;;;;19.80;99.90;;;;;;5126474;28;20230;-69
2022/07/24 00:28:33;;;;;;;;;;;19.70;99.90;;;;;;5111155;28;19979;-69
2022/07/24 00:30:59;;;;;;;;;;;19.60;99.90;;;;;;5106092;28;20222;-68
2022/07/24 00:33:26;;;;;;;;;;;19.60;99.90;;;;;;5105236;28;20207;-68
2022/07/24 00:35:53;;;;;;;;;;;19.60;99.90;;;;;;5105975;28;20221;-68
2022/07/24 00:38:19;;;;;;;;;;;19.60;99.90;;;;;;5105835;28;19955;-68
2022/07/24 00:40:46;;;;;;;;;;;19.60;99.90;;;;;;5108421;27;20223;-69
2022/07/24 00:43:16;;;;;;;;;;;19.60;99.90;;;;;;5117059;28;20258;-69
2022/07/24 00:45:42;;;;;;;;;;;19.50;99.90;;;;;;5126090;28;20257;-68
2022/07/24 00:48:09;;;;;;;;;;;19.50;99.90;;;;;;5126138;28;20412;-69
2022/07/24 00:50:36;;;;;;;;;;;19.50;99.90;;;;;;5132330;27;20215;-68
2022/07/24 00:53:03;;;;;;;;;;;19.50;99.90;;;;;;5125365;28;19920;-68
2022/07/24 00:55:30;;;;;;;;;;;19.50;99.90;;;;;;5116312;28;19920;-67
2022/07/24 00:57:57;;;;;;;;;;;19.50;99.90;;;;;;5105872;28;19920;-68
2022/07/24 01:00:25;;;;;;;;;;;19.40;99.90;;;;;;5106043;28;19920;-69
2022/07/24 01:02:51;;;;;;;;;;;19.40;99.90;;;;;;5104702;28;20023;-69
2022/07/24 01:05:19;;;;;;;;;;;19.40;99.90;;;;;;5105481;28;19986;-68
2022/07/24 01:07:46;;;;;;;;;;;19.30;99.90;;;;;;5126255;22;19961;-73
2022/07/24 01:10:12;;;;;;;;;;;19.30;99.90;;;;;;5137123;27;19920;-73
2022/07/24 01:12:40;;;;;;;;;;;19.30;99.90;;;;;;5145981;27;19986;-73
2022/07/24 01:15:08;;;;;;;;;;;19.20;99.90;;;;;;5146223;27;19957;-73
2022/07/24 01:17:38;;;;;;;;;;;19.20;99.90;;;;;;5130108;27;19950;-73
2022/07/24 01:20:05;;;;;;;;;;;19.20;99.90;;;;;;5125601;28;19962;-72
2022/07/24 01:22:33;;;;;;;;;;;19.20;99.90;;;;;;5125354;28;20190;-73
2022/07/24 01:25:00;;;;;;;;;;;19.20;99.90;;;;;;5145560;27;19954;-72
2022/07/24 01:27:26;;;;;;;;;;;19.20;99.90;;;;;;5146179;27;20116;-73
2022/07/24 01:29:53;;;;;;;;;;;19.10;99.90;;;;;;5145982;27;19996;-73
2022/07/24 01:32:20;;;;;;;;;;;19.10;99.90;;;;;;5145252;27;19946;-72
2022/07/24 01:34:46;;;;;;;;;;;19.10;99.90;;;;;;5142283;27;20286;-72
2022/07/24 01:37:13;;;;;;;;;;;19.10;99.90;;;;;;5145937;27;19951;-73
2022/07/24 01:39:41;;;;;;;;;;;19.10;99.90;;;;;;5146134;27;19919;-73
2022/07/24 01:42:08;;;;;;;;;;;19.10;99.90;;;;;;5145796;27;19991;-72
2022/07/24 01:44:34;;;;;;;;;;;19.10;99.90;;;;;;5145001;27;19955;-73
2022/07/24 01:47:02;;;;;;;;;;;19.00;99.90;;;;;;5145859;27;20217;-72
2022/07/24 01:49:28;;;;;;;;;;;19.00;99.90;;;;;;5136668;27;20283;-73
2022/07/24 01:51:55;;;;;;;;;;;19.00;99.90;;;;;;5145743;27;20151;-73
2022/07/24 01:54:21;;;;;;;;;;;19.00;99.90;;;;;;5144980;27;20115;-72
2022/07/24 01:56:49;;;;;;;;;;;18.90;99.90;;;;;;5145008;27;19986;-72
2022/07/24 01:59:16;;;;;;;;;;;18.90;99.90;;;;;;5145385;27;19927;-73
2022/07/24 02:01:43;;;;;;;;;;;18.90;99.90;;;;;;5145455;27;19926;-73
2022/07/24 02:04:09;;;;;;;;;;;18.90;99.90;;;;;;5144985;27;19919;-72
2022/07/24 02:06:36;;;;;;;;;;;18.90;99.90;;;;;;5145626;27;19920;-72
2022/07/24 02:09:03;;;;;;;;;;;18.80;99.90;;;;;;5145398;27;19986;-72
2022/07/24 02:11:30;;;;;;;;;;;18.80;99.90;;;;;;5145188;27;19992;-73
2022/07/24 02:13:59;;;;;;;;;;;18.70;99.90;;;;;;5144195;27;19924;-72
2022/07/24 02:16:26;;;;;;;;;;;18.70;99.90;;;;;;5124280;28;19926;-72
2022/07/24 02:18:53;;;;;;;;;;;18.70;99.90;;;;;;5124483;28;19947;-72
2022/07/24 02:21:19;;;;;;;;;;;18.70;99.90;;;;;;5124546;28;20062;-72
2022/07/24 02:23:46;;;;;;;;;;;18.60;99.90;;;;;;5123835;28;20246;-73
2022/07/24 02:26:13;;;;;;;;;;;18.60;99.90;;;;;;5124040;28;19958;-73
2022/07/24 02:28:39;;;;;;;;;;;18.60;99.90;;;;;;5129990;27;19926;-73
2022/07/24 02:31:08;;;;;;;;;;;18.60;99.90;;;;;;5144789;27;19927;-72
2022/07/24 02:33:34;;;;;;;;;;;18.60;99.90;;;;;;5142225;27;19919;-72
2022/07/24 02:36:01;;;;;;;;;;;18.50;99.90;;;;;;5144971;27;19947;-72
2022/07/24 02:38:28;;;;;;;;;;;18.60;99.90;;;;;;5144794;27;19919;-73
2022/07/24 02:40:54;;;;;;;;;;;18.50;99.90;;;;;;5145006;27;19919;-73
2022/07/24 02:43:21;;;;;;;;;;;18.50;99.90;;;;;;5143078;27;19926;-73
2022/07/24 02:45:47;;;;;;;;;;;18.50;99.90;;;;;;5144413;27;19955;-73
2022/07/24 02:48:16;;;;;;;;;;;18.50;99.90;;;;;;5144841;27;19987;-73
2022/07/24 02:50:42;;;;;;;;;;;18.50;99.90;;;;;;5144773;27;19957;-73
2022/07/24 02:53:09;;;;;;;;;;;18.50;99.90;;;;;;5144129;27;19986;-72
2022/07/24 02:55:35;;;;;;;;;;;18.50;99.90;;;;;;5144486;27;19951;-73
2022/07/24 02:58:03;;;;;;;;;;;18.40;99.90;;;;;;5144091;27;19994;-73
2022/07/24 03:00:29;;;;;;;;;;;18.40;99.90;;;;;;5144620;27;20205;-73
2022/07/24 03:02:56;;;;;;;;;;;18.30;99.90;;;;;;5143672;27;19923;-73
2022/07/24 03:05:24;;;;;;;;;;;18.30;99.90;;;;;;5144392;28;19986;-73
2022/07/24 03:07:51;;;;;;;;;;;18.30;99.90;;;;;;5144158;28;20006;-73
2022/07/24 03:10:18;;;;;;;;;;;18.30;99.90;;;;;;5144378;28;19994;-74
2022/07/24 03:12:44;;;;;;;;;;;18.30;99.90;;;;;;5143093;28;20211;-73
2022/07/24 03:15:12;;;;;;;;;;;18.20;99.90;;;;;;5144424;28;20113;-72
2022/07/24 03:17:38;;;;;;;;;;;18.20;99.90;;;;;;5144135;28;20054;-73
2022/07/24 03:20:06;;;;;;;;;;;18.20;99.90;;;;;;5143397;28;19982;-73
2022/07/24 03:22:34;;;;;;;;;;;18.10;99.90;;;;;;5125949;28;19987;-73
2022/07/24 03:25:01;;;;;;;;;;;18.10;99.90;;;;;;5143468;28;19951;-73
2022/07/24 03:27:28;;;;;;;;;;;18.10;99.90;;;;;;5143983;28;19919;-72
2022/07/24 03:29:54;;;;;;;;;;;18.00;99.90;;;;;;5144504;28;19962;-73
2022/07/24 03:32:21;;;;;;;;;;;18.00;99.90;;;;;;5144431;28;19955;-72
2022/07/24 03:34:48;;;;;;;;;;;17.90;99.90;;;;;;5141387;28;19982;-73
2022/07/24 03:37:14;;;;;;;;;;;17.90;99.90;;;;;;5144299;28;19958;-73
2022/07/24 03:39:43;;;;;;;;;;;17.90;99.90;;;;;;5143887;28;19987;-72
2022/07/24 03:42:09;;;;;;;;;;;17.80;99.90;;;;;;5144193;28;19928;-73
2022/07/24 03:44:36;;;;;;;;;;;17.80;99.90;;;;;;5143727;28;19919;-73
2022/07/24 03:47:02;;;;;;;;;;;17.80;99.90;;;;;;5144282;28;19927;-72
2022/07/24 03:49:31;;;;;;;;;;;17.80;99.90;;;;;;5129969;28;19926;-73
2022/07/24 03:51:58;;;;;;;;;;;17.70;99.90;;;;;;5140278;28;19955;-72
2022/07/24 03:54:24;;;;;;;;;;;17.80;99.90;;;;;;5143695;27;19961;-72
2022/07/24 03:56:52;;;;;;;;;;;17.70;99.90;;;;;;5148338;27;19955;-73
2022/07/24 03:59:19;;;;;;;;;;;17.70;99.90;;;;;;5148129;27;19987;-73
2022/07/24 04:01:46;;;;;;;;;;;17.70;99.90;;;;;;5148300;27;19925;-72
2022/07/24 04:04:13;;;;;;;;;;;17.70;99.90;;;;;;5147587;27;19978;-72
2022/07/24 04:06:40;;;;;;;;;;;17.70;99.90;;;;;;5148089;27;19923;-73
2022/07/24 04:09:07;;;;;;;;;;;17.60;99.90;;;;;;5148197;27;19919;-73
2022/07/24 04:11:33;;;;;;;;;;;17.60;99.90;;;;;;5148140;27;19986;-72
2022/07/24 04:14:01;;;;;;;;;;;17.60;99.90;;;;;;5147475;27;19927;-73
2022/07/24 04:16:28;;;;;;;;;;;17.60;99.90;;;;;;5147946;27;19951;-73
2022/07/24 04:18:55;;;;;;;;;;;17.50;99.90;;;;;;5147662;27;19942;-72
2022/07/24 04:21:21;;;;;;;;;;;17.60;99.90;;;;;;5147087;27;20118;-73
2022/07/24 04:23:48;;;;;;;;;;;17.50;99.90;;;;;;5146996;27;20244;-73
2022/07/24 04:26:15;;;;;;;;;;;17.60;99.90;;;;;;5147398;27;19951;-73
2022/07/24 04:28:42;;;;;;;;;;;17.60;99.90;;;;;;5144963;27;19974;-73
2022/07/24 04:31:10;;;;;;;;;;;17.60;99.90;;;;;;5147749;27;19973;-73
2022/07/24 04:33:45;;;;;;;;;;;17.60;99.90;;;;;;5144660;27;19926;-73
2022/07/24 04:36:12;;;;;;;;;;;17.60;99.90;;;;;;5147516;27;19959;-72
2022/07/24 04:38:39;;;;;;;;;;;17.70;99.90;;;;;;5142412;27;19927;-72
2022/07/24 04:41:05;;;;;;;;;;;17.70;99.90;;;;;;5126992;28;19926;-72
2022/07/24 04:43:32;;;;;;;;;;;17.70;99.90;;;;;;5125701;28;19920;-72
2022/07/24 04:45:59;;;;;;;;;;;17.80;99.90;;;;;;5126790;28;19927;-72
2022/07/24 04:48:27;;;;;;;;;;;17.90;99.90;;;;;;5126780;28;20168;-72
2022/07/24 04:50:54;;;;;;;;;;;17.90;99.90;;;;;;5126498;28;20453;-72
2022/07/24 04:53:21;;;;;;;;;;;17.90;99.90;;;;;;5142256;27;19920;-72
2022/07/24 04:55:47;;;;;;;;;;;17.90;99.90;;;;;;5147059;27;19966;-72
2022/07/24 04:58:14;;;;;;;;;;;17.90;99.90;;;;;;5138413;27;19987;-72
2022/07/24 05:00:41;;;;;;;;;;;17.90;99.90;;;;;;5146858;27;19926;-72
2022/07/24 05:03:07;;;;;;;;;;;17.90;99.90;;;;;;5146378;27;19920;-72
2022/07/24 05:05:35;;;;;;;;;;;18.00;99.90;;;;;;5146569;27;19951;-72
2022/07/24 05:08:02;;;;;;;;;;;18.00;99.90;;;;;;5145710;27;20337;-72
2022/07/24 05:10:29;;;;;;;;;;;18.00;99.90;;;;;;5146858;27;19920;-72
2022/07/24 05:12:55;;;;;;;;;;;18.00;99.90;;;;;;5146099;27;19957;-71
2022/07/24 05:15:22;;;;;;;;;;;18.00;99.90;;;;;;5146550;27;19951;-72
2022/07/24 05:17:49;;;;;;;;;;;18.10;99.90;;;;;;5146437;27;19958;-72
2022/07/24 05:20:15;;;;;;;;;;;18.20;99.90;;;;;;5146795;27;19954;-72
2022/07/24 05:22:43;;;;;;;;;;;18.20;99.90;;;;;;5146347;27;19927;-72
2022/07/24 05:25:12;;;;;;;;;;;18.30;99.90;;;;;;5143798;27;19947;-72
2022/07/24 05:27:38;;;;;;;;;;;18.30;99.90;;;;;;5146519;27;19927;-72
2022/07/24 05:30:06;;;;;;;;;;;18.30;99.90;;;;;;5146618;27;19982;-72
2022/07/24 05:32:32;;;;;;;;;;;18.30;99.90;;;;;;5145453;27;19955;-72
2022/07/24 05:34:59;;;;;;;;;;;18.40;99.90;;;;;;5144764;27;20203;-72
2022/07/24 05:37:26;;;;;;;;;;;18.40;99.90;;;;;;5145985;27;19980;-70
2022/07/24 05:39:54;;;;;;;;;;;18.50;99.90;;;;;;5146034;27;19950;-71
2022/07/24 05:42:20;;;;;;;;;;;18.50;99.90;;;;;;5146043;27;19990;-71
2022/07/24 05:44:47;;;;;;;;;;;18.50;99.90;;;;;;5145105;27;19999;-71
2022/07/24 05:47:14;;;;;;;;;;;18.60;99.90;;;;;;5145745;27;19958;-71
2022/07/24 05:49:40;;;;;;;;;;;18.70;99.90;;;;;;5146096;27;20170;-71
2022/07/24 05:52:07;;;;;;;;;;;18.70;99.90;;;;;;5145537;27;20225;-72
2022/07/24 05:54:33;;;;;;;;;;;18.70;99.90;;;;;;5144787;27;19983;-70
2022/07/24 05:57:01;;;;;;;;;;;18.70;99.90;;;;;;5145515;27;19962;-71
2022/07/24 05:59:28;;;;;;;;;;;18.80;99.90;;;;;;5145626;27;20270;-72
2022/07/24 06:01:55;;;;;;;;;;;18.80;99.90;;;;;;5128549;27;19982;-71
2022/07/24 06:04:21;;;;;;;;;;;18.90;99.90;;;;;;5124372;28;19975;-71
2022/07/24 06:06:48;;;;;;;;;;;18.90;99.90;;;;;;5141949;27;19919;-71
2022/07/24 06:09:15;;;;;;;;;;;18.90;99.90;;;;;;5138289;27;19983;-71
2022/07/24 06:11:41;;;;;;;;;;;19.00;99.90;;;;;;5131465;27;19924;-69
2022/07/24 06:14:11;;;;;;;;;;;19.00;99.90;;;;;;5133878;27;20215;-72
2022/07/24 06:16:38;;;;;;;;;;;19.10;99.90;;;;;;5144922;27;19950;-72
2022/07/24 06:19:05;;;;;;;;;;;19.10;99.90;;;;;;5136322;27;19983;-72
2022/07/24 06:21:31;;;;;;;;;;;19.20;99.90;;;;;;5132578;27;19984;-72
2022/07/24 06:23:58;;;;;;;;;;;19.30;99.90;;;;;;5137035;27;20226;-72
2022/07/24 06:26:25;;;;;;;;;;;19.40;99.90;;;;;;5131431;27;20271;-72
2022/07/24 06:28:51;;;;;;;;;;;19.50;99.90;;;;;;5140908;27;20173;-72
2022/07/24 06:31:19;;;;;;;;;;;19.60;99.90;;;;;;5139519;27;19920;-72
2022/07/24 06:33:47;;;;;;;;;;;19.80;99.90;;;;;;5134706;27;19927;-72
2022/07/24 06:36:13;;;;;;;;;;;19.90;99.90;;;;;;5135014;27;19919;-72
2022/07/24 06:38:40;;;;;;;;;;;20.00;99.90;;;;;;5133755;27;19958;-72
2022/07/24 06:41:07;;;;;;;;;;;20.10;99.90;;;;;;5131366;27;19982;-72
2022/07/24 06:43:33;;;;;;;;;;;20.30;99.90;;;;;;5131986;27;20285;-72
2022/07/24 06:46:00;;;;;;;;;;;20.40;99.90;;;;;;5136731;27;20123;-72
2022/07/24 06:48:28;;;;;;;;;;;20.50;99.90;;;;;;5130299;27;20374;-72
2022/07/24 06:50:54;;;;;;;;;;;20.50;99.90;;;;;;5139321;27;19986;-72
2022/07/24 06:53:21;;;;;;;;;;;20.60;99.90;;;;;;5134713;27;19919;-72
2022/07/24 06:55:48;;;;;;;;;;;20.70;99.90;;;;;;5139200;27;19919;-72
2022/07/24 06:58:14;;;;;;;;;;;20.90;99.90;;;;;;5140428;27;19951;-72
2022/07/24 07:00:41;;;;;;;;;;;21.10;99.90;;;;;;5133925;27;19958;-72
2022/07/24 07:03:08;;;;;;;;;;;21.20;99.90;;;;;;5135062;27;19947;-72
2022/07/24 07:05:36;;;;;;;;;;;21.30;99.90;;;;;;5133496;28;19946;-72
2022/07/24 07:08:03;;;;;;;;;;;21.40;99.90;;;;;;5138626;28;19982;-71
2022/07/24 07:10:29;;;;;;;;;;;21.50;99.90;;;;;;5137693;28;19990;-71
2022/07/24 07:12:56;;;;;;;;;;;21.60;99.90;;;;;;5134770;28;19942;-72
2022/07/24 07:15:23;;;;;;;;;;;21.70;99.90;;;;;;5136290;28;19951;-71
2022/07/24 07:17:49;;;;;;;;;;;21.80;99.90;;;;;;5129711;28;19954;-71
2022/07/24 07:20:16;;;;;;;;;;;21.80;99.90;;;;;;5135024;28;19982;-71
2022/07/24 07:22:44;;;;;;;;;;;21.90;99.90;;;;;;5143719;28;19958;-71
2022/07/24 07:25:11;;;;;;;;;;;21.90;99.90;;;;;;5144371;28;19957;-71
2022/07/24 07:27:39;;;;;;;;;;;22.00;99.90;;;;;;5144353;28;19982;-70
2022/07/24 07:30:06;;;;;;;;;;;22.10;99.90;;;;;;5145444;27;20230;-71
2022/07/24 07:32:33;;;;;;;;;;;22.30;99.90;;;;;;5146823;27;19986;-72
2022/07/24 07:34:59;;;;;;;;;;;22.40;99.90;;;;;;5146562;27;20241;-71
2022/07/24 07:37:26;;;;;;;;;;;22.50;99.90;;;;;;5141696;27;20218;-70
2022/07/24 07:39:54;;;;;;;;;;;22.60;99.90;;;;;;5142196;27;19991;-70
2022/07/24 07:42:21;;;;;;;;;;;22.60;99.90;;;;;;5132016;27;19986;-71
2022/07/24 07:44:48;;;;;;;;;;;22.80;99.90;;;;;;5136386;27;19964;-71
2022/07/24 07:47:15;;;;;;;;;;;22.90;99.90;;;;;;5133763;27;19964;-71
2022/07/24 07:49:42;;;;;;;;;;;22.90;99.90;;;;;;5145684;27;19983;-71
2022/07/24 07:52:09;;;;;;;;;;;23.10;99.90;;;;;;5144441;27;20021;-71
2022/07/24 07:54:35;;;;;;;;;;;23.20;99.90;;;;;;5138703;27;19980;-71
2022/07/24 07:57:03;;;;;;;;;;;23.30;99.90;;;;;;5147906;27;20151;-71
2022/07/24 07:59:30;;;;;;;;;;;23.50;99.90;;;;;;5139140;27;19990;-71
2022/07/24 08:01:57;;;;;;;;;;;23.60;99.90;;;;;;5152472;27;19919;-71
2022/07/24 08:04:24;;;;;;;;;;;23.80;99.90;;;;;;5148005;27;19926;-71
2022/07/24 08:06:51;;;;;;;;;;;23.90;99.90;;;;;;5142989;27;19926;-71
2022/07/24 08:09:17;;;;;;;;;;;24.00;99.90;;;;;;5134684;27;20223;-71
2022/07/24 08:11:44;;;;;;;;;;;24.00;99.90;;;;;;5135946;27;19927;-73
2022/07/24 08:14:21;;;;;;;;;;;24.10;99.90;;;;;;5127963;28;19920;-71
2022/07/24 08:16:48;;;;;;;;;;;24.30;99.90;;;;;;5144444;27;19919;-71
2022/07/24 08:19:15;;;;;;;;;;;24.40;99.90;;;;;;5155304;27;19964;-72
2022/07/24 08:21:41;;;;;;;;;;;24.40;99.90;;;;;;5147448;27;19932;-71
2022/07/24 08:24:08;;;;;;;;;;;24.50;99.90;;;;;;5146719;27;20254;-71
2022/07/24 08:26:35;;;;;;;;;;;24.60;99.90;;;;;;5147169;27;20203;-72
2022/07/24 08:29:01;;;;;;;;;;;24.70;99.90;;;;;;5147132;27;19950;-72
2022/07/24 08:31:30;;;;;;;;;;;24.70;99.90;;;;;;5147327;27;19951;-71
2022/07/24 08:33:56;;;;;;;;;;;24.70;99.90;;;;;;5144628;27;20129;-71
2022/07/24 08:36:23;;;;;;;;;;;24.70;99.90;;;;;;5147155;27;19926;-71
2022/07/24 08:38:49;;;;;;;;;;;24.80;99.90;;;;;;5141449;27;19983;-71
2022/07/24 08:41:18;;;;;;;;;;;24.80;99.90;;;;;;5141051;27;19954;-71
2022/07/24 08:43:48;;;;;;;;;;;24.90;99.90;;;;;;5156119;27;19978;-71
2022/07/24 08:46:15;;;;;;;;;;;25.00;99.90;;;;;;5139985;27;19955;-72
2022/07/24 08:48:45;;;;;;;;;;;25.10;99.90;;;;;;5141106;27;19983;-72
2022/07/24 08:51:12;;;;;;;;;;;25.30;99.90;;;;;;5141337;27;19947;-72
2022/07/24 08:53:39;;;;;;;;;;;25.30;99.90;;;;;;5147129;27;20153;-72
2022/07/24 08:56:06;;;;;;;;;;;25.40;99.90;;;;;;5146274;27;20242;-72
2022/07/24 08:58:36;;;;;;;;;;;25.50;99.90;;;;;;5146151;27;19920;-72
2022/07/24 09:01:03;;;;;;;;;;;25.50;99.90;;;;;;5146301;27;20110;-72
2022/07/24 09:03:38;;;;;;;;;;;25.60;99.90;;;;;;5147575;27;20253;-72
2022/07/24 09:06:08;;;;;;;;;;;25.60;99.90;;;;;;5146330;27;20267;-72
2022/07/24 09:08:34;;;;;;;;;;;25.60;99.90;;;;;;5146691;27;19939;-72
2022/07/24 09:11:03;;;;;;;;;;;25.70;99.90;;;;;;5145844;27;20203;-72
2022/07/24 09:14:29;;;;;;;;;;;25.80;99.90;;;;;;5138304;27;19926;-72
2022/07/24 09:16:22;;;;;;;;;;;25.90;99.90;;;;;;5129583;27;19955;-71
2022/07/24 09:18:49;;;;;;;;;;;25.90;99.90;;;;;;5142183;27;19927;-72
2022/07/24 09:21:17;;;;;;;;;;;25.90;99.90;;;;;;5137446;27;19955;-72
2022/07/24 09:23:45;;;;;;;;;;;25.90;99.90;;;;;;5137866;27;19934;-71
2022/07/24 09:26:11;;;;;;;;;;;25.90;99.90;;;;;;5145567;27;20266;-71
2022/07/24 09:28:48;;;;;;;;;;;25.90;99.90;;;;;;5142420;27;19919;-71
2022/07/24 09:31:15;;;;;;;;;;;25.90;99.90;;;;;;5125354;28;20259;-72
2022/07/24 09:33:41;;;;;;;;;;;26.00;99.90;;;;;;5134910;27;19966;-73
2022/07/24 09:36:12;;;;;;;;;;;25.90;99.90;;;;;;5129479;27;19951;-72
2022/07/24 09:38:44;;;;;;;;;;;25.90;99.90;;;;;;5130179;27;19986;-72
2022/07/24 09:41:11;;;;;;;;;;;26.00;99.90;;;;;;5145580;27;19958;-71
2022/07/24 09:43:38;;;;;;;;;;;26.20;99.90;;;;;;5145045;27;19920;-72
2022/07/24 09:46:06;;;;;;;;;;;26.40;99.90;;;;;;5145557;27;19919;-72
2022/07/24 09:48:34;;;;;;;;;;;26.60;99.90;;;;;;5145406;27;20262;-72
2022/07/24 09:51:01;;;;;;;;;;;26.70;99.90;;;;;;5145618;27;19919;-71
2022/07/24 09:53:29;;;;;;;;;;;26.90;99.90;;;;;;5144125;27;19939;-72
2022/07/24 09:56:03;;;;;;;;;;;27.10;99.90;;;;;;5145580;27;19957;-72
2022/07/24 09:58:30;;;;;;;;;;;27.30;99.90;;;;;;5145166;27;19919;-73
2022/07/24 10:00:58;;;;;;;;;;;27.50;99.90;;;;;;5145392;27;19947;-72
2022/07/24 10:03:25;;;;;;;;;;;27.60;99.90;;;;;;5144866;27;19923;-72
2022/07/24 10:05:54;;;;;;;;;;;27.70;99.90;;;;;;5144962;27;19942;-72
2022/07/24 10:08:21;;;;;;;;;;;27.70;99.90;;;;;;5130130;27;19958;-70
2022/07/24 10:10:49;;;;;;;;;;;27.60;99.90;;;;;;5140496;27;19962;-73
2022/07/24 10:13:19;;;;;;;;;;;27.60;99.90;;;;;;5124175;28;19958;-71
2022/07/24 10:15:51;;;;;;;;;;;27.80;99.90;;;;;;5137954;27;19927;-71
2022/07/24 10:18:20;;;;;;;;;;;27.90;99.90;;;;;;5144807;27;19919;-71
2022/07/24 10:20:47;;;;;;;;;;;28.10;99.90;;;;;;5127464;27;20194;-71
2022/07/24 10:23:21;;;;;;;;;;;28.20;99.90;;;;;;5144367;27;20044;-71
2022/07/24 10:25:53;;;;;;;;;;;28.30;99.90;;;;;;5131389;27;19947;-73
2022/07/24 10:28:25;;;;;;;;;;;28.40;99.90;;;;;;5125255;28;19927;-72
2022/07/24 10:30:52;;;;;;;;;;;28.40;99.90;;;;;;5145045;27;19982;-72
2022/07/24 10:33:20;;;;;;;;;;;28.40;99.90;;;;;;5141377;27;20394;-72
2022/07/24 10:35:48;;;;;;;;;;;28.50;99.90;;;;;;5144479;27;19978;-72
2022/07/24 10:38:19;;;;;;;;;;;28.60;99.90;;;;;;5144235;27;20249;-72
2022/07/24 10:40:49;;;;;;;;;;;28.70;99.90;;;;;;5140359;27;20196;-72
2022/07/24 10:43:16;;;;;;;;;;;28.80;99.90;;;;;;5123398;28;19951;-71
2022/07/24 10:45:45;;;;;;;;;;;28.80;99.90;;;;;;5136429;27;20001;-71
2022/07/24 10:48:34;;;;;;;;;;;28.90;99.90;;;;;;5136938;27;19998;-71
2022/07/24 10:51:03;;;;;;;;;;;29.00;99.90;;;;;;5129096;27;20203;-72
2022/07/24 10:53:31;;;;;;;;;;;29.10;99.90;;;;;;5134307;27;19919;-72
2022/07/24 10:56:12;;;;;;;;;;;29.10;99.90;;;;;;5133770;27;19991;-70
2022/07/24 10:58:51;;;;;;;;;;;29.20;99.90;;;;;;5122164;27;19919;-71
2022/07/24 11:01:29;;;;;;;;;;;29.30;99.90;;;;;;5123823;28;19920;-71
2022/07/24 11:03:57;;;;;;;;;;;29.50;99.90;;;;;;5141555;27;19926;-71
2022/07/24 11:06:38;;;;;;;;;;;29.50;99.90;;;;;;5144093;27;19926;-72
2022/07/24 11:09:05;;;;;;;;;;;29.60;99.90;;;;;;5134916;28;19958;-71
2022/07/24 11:11:32;;;;;;;;;;;29.70;99.90;;;;;;5129525;28;19953;-71
2022/07/24 11:13:59;;;;;;;;;;;29.80;99.90;;;;;;5133826;28;19919;-71
2022/07/24 11:16:27;;;;;;;;;;;30.00;99.90;;;;;;5129230;28;19920;-72
2022/07/24 11:19:12;;;;;;;;;;;30.20;99.90;;;;;;5143577;28;19920;-72
2022/07/24 11:21:41;;;;;;;;;;;30.40;99.90;;;;;;5147713;27;19955;-72
2022/07/24 11:24:19;;;;;;;;;;;30.60;99.80;;;;;;5143843;28;19928;-72
2022/07/24 11:26:49;;;;;;;;;;;30.80;99.90;;;;;;5144448;28;19919;-71
2022/07/24 11:29:17;;;;;;;;;;;31.00;98.70;;;;;;5132299;27;20006;-70
2022/07/24 11:31:44;;;;;;;;;;;31.00;99.00;;;;;;5142540;28;19987;-73
2022/07/24 11:34:11;;;;;;;;;;;30.70;98.80;;;;;;5141704;28;20068;-72
2022/07/24 11:36:42;;;;;;;;;;;30.40;99.30;;;;;;5129008;28;19987;-72
2022/07/24 11:39:09;;;;;;;;;;;30.20;99.10;;;;;;5140264;28;19982;-72
2022/07/24 11:41:45;;;;;;;;;;;29.90;99.20;;;;;;5144630;28;19951;-72
2022/07/24 11:44:12;;;;;;;;;;;29.80;99.00;;;;;;5139388;28;20166;-72
2022/07/24 11:46:40;;;;;;;;;;;29.80;99.90;;;;;;5143908;27;19919;-71
2022/07/24 11:49:14;;;;;;;;;;;29.90;99.70;;;;;;5144846;28;20192;-71
2022/07/24 11:51:43;;;;;;;;;;;30.10;99.20;;;;;;5138388;28;19934;-71
2022/07/24 11:54:10;;;;;;;;;;;30.40;99.90;;;;;;5125454;27;19950;-71
2022/07/24 11:56:36;;;;;;;;;;;30.70;97.90;;;;;;5136718;27;19958;-73
2022/07/24 11:59:03;;;;;;;;;;;30.80;98.00;;;;;;5134314;28;19950;-73
2022/07/24 12:01:30;;;;;;;;;;;31.00;98.70;;;;;;5130944;28;19964;-74
2022/07/24 12:03:58;;;;;;;;;;;31.10;97.90;;;;;;5140082;27;20254;-71
2022/07/24 12:06:24;;;;;;;;;;;31.40;98.80;;;;;;5134140;28;19983;-74
2022/07/24 12:08:56;;;;;;;;;;;31.70;98.10;;;;;;5123661;28;19951;-74
2022/07/24 12:11:23;;;;;;;;;;;31.90;96.00;;;;;;5141812;27;19955;-72
2022/07/24 12:13:51;;;;;;;;;;;32.10;95.10;;;;;;5143192;28;19955;-72
2022/07/24 12:16:23;;;;;;;;;;;32.30;95.90;;;;;;5144727;27;19957;-71
2022/07/24 12:18:50;;;;;;;;;;;32.40;94.80;;;;;;5134232;27;19920;-72
2022/07/24 12:21:17;;;;;;;;;;;32.60;94.90;;;;;;5136731;27;19920;-72
2022/07/24 12:23:45;;;;;;;;;;;32.70;94.90;;;;;;5142336;27;19920;-72
2022/07/24 12:26:13;;;;;;;;;;;32.80;94.20;;;;;;5142602;27;20184;-72
2022/07/24 12:28:39;;;;;;;;;;;33.10;94.10;;;;;;5148198;27;19951;-72
2022/07/24 12:31:07;;;;;;;;;;;33.10;93.80;;;;;;5150774;27;20167;-72
2022/07/24 12:33:34;;;;;;;;;;;33.00;92.40;;;;;;5135452;27;19919;-72
2022/07/24 12:36:08;;;;;;;;;;;32.70;92.70;;;;;;5140883;27;19946;-73
2022/07/24 12:38:35;;;;;;;;;;;32.50;93.80;;;;;;5132993;27;19927;-73
2022/07/24 12:41:03;;;;;;;;;;;32.70;92.60;;;;;;5145349;27;19978;-71
2022/07/24 12:43:31;;;;;;;;;;;32.90;92.00;;;;;;5135763;27;19966;-73
2022/07/24 12:46:08;;;;;;;;;;;33.10;91.50;;;;;;5148045;27;19986;-71
2022/07/24 12:48:35;;;;;;;;;;;32.90;91.20;;;;;;5146234;27;19994;-72
2022/07/24 12:51:03;;;;;;;;;;;32.90;90.30;;;;;;5146465;27;19994;-72
2022/07/24 12:53:31;;;;;;;;;;;32.90;90.10;;;;;;5145932;27;19987;-72
2022/07/24 12:56:02;;;;;;;;;;;32.80;90.10;;;;;;5146211;27;19982;-72
2022/07/24 12:58:30;;;;;;;;;;;32.60;91.10;;;;;;5140029;27;19927;-71
2022/07/24 13:00:58;;;;;;;;;;;32.70;90.30;;;;;;5135516;27;19954;-71
2022/07/24 13:03:25;;;;;;;;;;;32.70;90.70;;;;;;5142684;27;19919;-73
2022/07/24 13:05:59;;;;;;;;;;;33.00;90.00;;;;;;5137454;27;19959;-72
2022/07/24 13:08:25;;;;;;;;;;;33.20;90.10;;;;;;5148785;27;19920;-72
2022/07/24 13:10:56;;;;;;;;;;;33.40;89.60;;;;;;5143031;27;20254;-72
2022/07/24 13:13:23;;;;;;;;;;;33.10;88.80;;;;;;5144712;27;19919;-71
2022/07/24 13:15:51;;;;;;;;;;;33.30;90.10;;;;;;5134496;27;19920;-72
2022/07/24 13:18:18;;;;;;;;;;;33.60;88.30;;;;;;5125393;28;19983;-72
2022/07/24 13:20:44;;;;;;;;;;;33.90;85.30;;;;;;5143532;27;19978;-72
2022/07/24 13:23:11;;;;;;;;;;;34.00;85.70;;;;;;5145140;27;19955;-71
2022/07/24 13:25:38;;;;;;;;;;;34.00;85.00;;;;;;5145887;27;19970;-72
2022/07/24 13:28:05;;;;;;;;;;;33.80;85.20;;;;;;5134727;27;19984;-72
2022/07/24 13:30:35;;;;;;;;;;;33.90;84.50;;;;;;5130004;27;19947;-71
2022/07/24 13:33:27;;;;;;;;;;;34.00;84.30;;;;;;5127137;27;20230;-73
2022/07/24 13:35:53;;;;;;;;;;;34.10;82.50;;;;;;5133206;27;21257;-71
2022/07/24 13:38:20;;;;;;;;;;;34.20;84.20;;;;;;5144278;27;19920;-72
2022/07/24 13:40:47;;;;;;;;;;;34.50;84.10;;;;;;5141042;27;19995;-73
2022/07/24 13:43:13;;;;;;;;;;;34.60;83.80;;;;;;5136863;27;19927;-73
2022/07/24 13:45:40;;;;;;;;;;;34.70;82.40;;;;;;5136910;27;19961;-72
2022/07/24 13:48:08;;;;;;;;;;;34.80;82.50;;;;;;5139730;27;19955;-72
2022/07/24 13:50:35;;;;;;;;;;;34.80;81.00;;;;;;5134319;27;19947;-73
2022/07/24 13:53:05;;;;;;;;;;;34.90;81.30;;;;;;5132924;27;19950;-73
2022/07/24 13:55:31;;;;;;;;;;;34.80;79.50;;;;;;5132740;27;19920;-72
2022/07/24 13:57:58;;;;;;;;;;;34.80;79.20;;;;;;5149104;27;19926;-72
2022/07/24 14:00:25;;;;;;;;;;;34.90;80.40;;;;;;5154879;27;19919;-72
2022/07/24 14:02:54;;;;;;;;;;;35.10;79.80;;;;;;5156420;27;20165;-73
2022/07/24 14:05:22;;;;;;;;;;;35.20;79.00;;;;;;5156730;27;20148;-73
2022/07/24 14:07:49;;;;;;;;;;;35.30;77.70;;;;;;5154290;27;19958;-73
2022/07/24 14:10:18;;;;;;;;;;;35.10;79.30;;;;;;5156509;27;19920;-73
2022/07/24 14:12:45;;;;;;;;;;;35.30;79.10;;;;;;5151671;27;19923;-72
2022/07/24 14:15:12;;;;;;;;;;;35.50;77.40;;;;;;5135031;27;19986;-72
2022/07/24 14:17:39;;;;;;;;;;;35.50;78.00;;;;;;5132651;27;19958;-72
2022/07/24 14:20:07;;;;;;;;;;;35.50;76.10;;;;;;5142015;27;20017;-73